Randsburg, California
Current Conditions -  °F | °C
As of 12:56 PM on Saturday 22 Nov 2014 (Local Time) from KNID Reporting Station
Clear Clear  
Wind Chill: 62°   Ceiling: Unl
Heat Index: 62°   Visibility: 10mi
Dew Point: 35°   Wind: 0mph
Humidity: 37%   Direction: NA
Pressure: 29.93"   Gusts: NA
Location:  35.37°N, 117.66°W
Report Text: KNID 222056Z AUTO 00000KT 10SM CLR 17/02 A2993 RMK AO2 SLP132 T01670017 $
Loading
Personal Weather Stations






























Interactive Weather Map New forecast layout! Learn more

10-Day Weather Forecast

Advertisements
Track Severe Weather on mobile